sensor_id;sensor_type;location;lat;lon;timestamp;temperature;humidity
13172;DHT22;6651;53.200;10.432;2022-10-16T00:01:45;13.80;99.90
13172;DHT22;6651;53.200;10.432;2022-10-16T00:04:12;13.80;99.90
13172;DHT22;6651;53.200;10.432;2022-10-16T00:06:37;13.80;99.90
13172;DHT22;6651;53.200;10.432;2022-10-16T00:09:03;13.80;99.90
13172;DHT22;6651;53.200;10.432;2022-10-16T00:11:32;13.70;99.90
13172;DHT22;6651;53.200;10.432;2022-10-16T00:14:00;13.70;99.90
13172;DHT22;6651;53.200;10.432;2022-10-16T00:16:27;13.70;99.90
13172;DHT22;6651;53.200;10.432;2022-10-16T00:18:53;13.70;99.90
13172;DHT22;6651;53.200;10.432;2022-10-16T00:21:22;13.70;99.90
13172;DHT22;6651;53.200;10.432;2022-10-16T00:23:53;13.60;99.90
13172;DHT22;6651;53.200;10.432;2022-10-16T00:26:19;13.60;99.90
13172;DHT22;6651;53.200;10.432;2022-10-16T00:28:46;13.60;99.90
13172;DHT22;6651;53.200;10.432;2022-10-16T00:31:13;13.60;99.90
13172;DHT22;6651;53.200;10.432;2022-10-16T00:33:39;13.60;99.90
13172;DHT22;6651;53.200;10.432;2022-10-16T00:36:07;13.60;99.90
13172;DHT22;6651;53.200;10.432;2022-10-16T00:38:33;13.50;99.90
13172;DHT22;6651;53.200;10.432;2022-10-16T00:40:59;13.50;99.90
13172;DHT22;6651;53.200;10.432;2022-10-16T00:43:47;13.50;99.90
13172;DHT22;6651;53.200;10.432;2022-10-16T00:46:17;13.50;99.90
13172;DHT22;6651;53.200;10.432;2022-10-16T00:51:30;13.40;99.90
13172;DHT22;6651;53.200;10.432;2022-10-16T00:53:56;13.40;99.90
13172;DHT22;6651;53.200;10.432;2022-10-16T00:56:22;13.40;99.90
13172;DHT22;6651;53.200;10.432;2022-10-16T00:58:48;13.40;99.90
13172;DHT22;6651;53.200;10.432;2022-10-16T01:01:14;13.40;99.90
13172;DHT22;6651;53.200;10.432;2022-10-16T01:03:40;13.40;99.90
13172;DHT22;6651;53.200;10.432;2022-10-16T01:06:11;13.40;99.90
13172;DHT22;6651;53.200;10.432;2022-10-16T01:09:02;13.30;99.90
13172;DHT22;6651;53.200;10.432;2022-10-16T01:14:48;13.30;99.90
13172;DHT22;6651;53.200;10.432;2022-10-16T01:17:31;13.20;99.90
13172;DHT22;6651;53.200;10.432;2022-10-16T01:26:01;13.10;99.90
13172;DHT22;6651;53.200;10.432;2022-10-16T01:28:36;13.10;99.90
13172;DHT22;6651;53.200;10.432;2022-10-16T01:31:05;13.00;99.90
13172;DHT22;6651;53.200;10.432;2022-10-16T01:33:40;13.00;99.90
13172;DHT22;6651;53.200;10.432;2022-10-16T01:36:15;13.00;99.90
13172;DHT22;6651;53.200;10.432;2022-10-16T01:38:43;13.00;99.90
13172;DHT22;6651;53.200;10.432;2022-10-16T01:41:22;12.90;99.90
13172;DHT22;6651;53.200;10.432;2022-10-16T01:43:57;12.90;99.90
13172;DHT22;6651;53.200;10.432;2022-10-16T01:46:26;12.90;99.90
13172;DHT22;6651;53.200;10.432;2022-10-16T01:48:52;12.90;99.90
13172;DHT22;6651;53.200;10.432;2022-10-16T01:51:19;12.90;99.90
13172;DHT22;6651;53.200;10.432;2022-10-16T01:53:50;12.80;99.90
13172;DHT22;6651;53.200;10.432;2022-10-16T01:56:18;12.80;99.90
13172;DHT22;6651;53.200;10.432;2022-10-16T01:58:48;12.70;99.90
13172;DHT22;6651;53.200;10.432;2022-10-16T02:01:17;12.60;99.90
13172;DHT22;6651;53.200;10.432;2022-10-16T02:03:45;12.60;99.90
13172;DHT22;6651;53.200;10.432;2022-10-16T02:06:11;12.60;99.90
13172;DHT22;6651;53.200;10.432;2022-10-16T02:08:37;12.50;99.90
13172;DHT22;6651;53.200;10.432;2022-10-16T02:11:05;12.50;99.90
13172;DHT22;6651;53.200;10.432;2022-10-16T02:13:39;12.50;99.90
13172;DHT22;6651;53.200;10.432;2022-10-16T02:16:05;12.40;99.90
13172;DHT22;6651;53.200;10.432;2022-10-16T02:18:31;12.40;99.90
13172;DHT22;6651;53.200;10.432;2022-10-16T02:21:04;12.30;99.90
13172;DHT22;6651;53.200;10.432;2022-10-16T02:26:07;12.30;99.90
13172;DHT22;6651;53.200;10.432;2022-10-16T02:28:42;12.30;99.90
13172;DHT22;6651;53.200;10.432;2022-10-16T02:31:11;12.30;99.90
13172;DHT22;6651;53.200;10.432;2022-10-16T02:33:40;12.20;99.90
13172;DHT22;6651;53.200;10.432;2022-10-16T02:36:07;12.30;99.90
13172;DHT22;6651;53.200;10.432;2022-10-16T02:38:34;12.30;99.90
13172;DHT22;6651;53.200;10.432;2022-10-16T02:41:00;12.30;99.90
13172;DHT22;6651;53.200;10.432;2022-10-16T02:43:26;12.30;99.90
13172;DHT22;6651;53.200;10.432;2022-10-16T02:45:52;12.30;99.90
13172;DHT22;6651;53.200;10.432;2022-10-16T02:48:17;12.20;99.90
13172;DHT22;6651;53.200;10.432;2022-10-16T02:50:43;12.10;99.90
13172;DHT22;6651;53.200;10.432;2022-10-16T02:53:09;12.10;99.90
13172;DHT22;6651;53.200;10.432;2022-10-16T02:55:34;12.10;99.90
13172;DHT22;6651;53.200;10.432;2022-10-16T02:58:00;12.10;99.90
13172;DHT22;6651;53.200;10.432;2022-10-16T03:00:25;12.10;99.90
13172;DHT22;6651;53.200;10.432;2022-10-16T03:02:51;12.10;99.90
13172;DHT22;6651;53.200;10.432;2022-10-16T03:05:17;12.00;99.90
13172;DHT22;6651;53.200;10.432;2022-10-16T03:07:42;12.00;99.90
13172;DHT22;6651;53.200;10.432;2022-10-16T03:10:08;11.90;99.90
13172;DHT22;6651;53.200;10.432;2022-10-16T03:12:34;12.00;99.90
13172;DHT22;6651;53.200;10.432;2022-10-16T03:14:59;12.00;99.90
13172;DHT22;6651;53.200;10.432;2022-10-16T03:17:26;12.00;99.90
13172;DHT22;6651;53.200;10.432;2022-10-16T03:19:51;12.00;99.90
13172;DHT22;6651;53.200;10.432;2022-10-16T03:22:17;12.00;99.90
13172;DHT22;6651;53.200;10.432;2022-10-16T03:24:45;12.00;99.90
13172;DHT22;6651;53.200;10.432;2022-10-16T03:27:11;11.90;99.90
13172;DHT22;6651;53.200;10.432;2022-10-16T03:29:36;12.00;99.90
13172;DHT22;6651;53.200;10.432;2022-10-16T03:32:02;11.90;99.90
13172;DHT22;6651;53.200;10.432;2022-10-16T03:34:28;12.00;99.90
13172;DHT22;6651;53.200;10.432;2022-10-16T03:36:53;12.00;99.90
13172;DHT22;6651;53.200;10.432;2022-10-16T03:39:19;12.10;99.90
13172;DHT22;6651;53.200;10.432;2022-10-16T03:41:45;12.10;99.90
13172;DHT22;6651;53.200;10.432;2022-10-16T03:44:11;12.00;99.90
13172;DHT22;6651;53.200;10.432;2022-10-16T03:46:37;12.00;99.90
13172;DHT22;6651;53.200;10.432;2022-10-16T03:49:03;12.00;99.90
13172;DHT22;6651;53.200;10.432;2022-10-16T03:51:28;12.10;99.90
13172;DHT22;6651;53.200;10.432;2022-10-16T03:53:54;12.00;99.90
13172;DHT22;6651;53.200;10.432;2022-10-16T03:56:19;12.00;99.90
13172;DHT22;6651;53.200;10.432;2022-10-16T03:58:45;12.10;99.90
13172;DHT22;6651;53.200;10.432;2022-10-16T04:01:10;12.10;99.90
13172;DHT22;6651;53.200;10.432;2022-10-16T04:03:36;12.10;99.90
13172;DHT22;6651;53.200;10.432;2022-10-16T04:06:02;12.10;99.90
13172;DHT22;6651;53.200;10.432;2022-10-16T04:08:27;12.00;99.90
13172;DHT22;6651;53.200;10.432;2022-10-16T04:10:53;12.00;99.90
13172;DHT22;6651;53.200;10.432;2022-10-16T04:13:19;12.00;99.90
13172;DHT22;6651;53.200;10.432;2022-10-16T04:15:45;12.00;99.90
13172;DHT22;6651;53.200;10.432;2022-10-16T04:18:11;12.00;99.90
13172;DHT22;6651;53.200;10.432;2022-10-16T04:20:37;12.00;99.90
13172;DHT22;6651;53.200;10.432;2022-10-16T04:23:02;11.90;99.90
13172;DHT22;6651;53.200;10.432;2022-10-16T04:25:28;11.90;99.90
13172;DHT22;6651;53.200;10.432;2022-10-16T04:27:54;11.80;99.90
13172;DHT22;6651;53.200;10.432;2022-10-16T04:30:21;11.80;99.90
13172;DHT22;6651;53.200;10.432;2022-10-16T04:32:51;11.80;99.90
13172;DHT22;6651;53.200;10.432;2022-10-16T04:35:18;11.80;99.90
13172;DHT22;6651;53.200;10.432;2022-10-16T04:37:44;11.80;99.90
13172;DHT22;6651;53.200;10.432;2022-10-16T04:40:09;11.80;99.90
13172;DHT22;6651;53.200;10.432;2022-10-16T04:42:35;11.90;99.90
13172;DHT22;6651;53.200;10.432;2022-10-16T04:45:00;11.90;99.90
13172;DHT22;6651;53.200;10.432;2022-10-16T04:47:26;11.90;99.90
13172;DHT22;6651;53.200;10.432;2022-10-16T04:49:51;11.90;99.90
13172;DHT22;6651;53.200;10.432;2022-10-16T04:52:17;11.90;99.90
13172;DHT22;6651;53.200;10.432;2022-10-16T04:54:44;11.90;99.90
13172;DHT22;6651;53.200;10.432;2022-10-16T04:57:10;12.00;99.90
13172;DHT22;6651;53.200;10.432;2022-10-16T04:59:36;12.00;99.90
13172;DHT22;6651;53.200;10.432;2022-10-16T05:02:02;12.00;99.90
13172;DHT22;6651;53.200;10.432;2022-10-16T05:04:27;12.00;99.90
13172;DHT22;6651;53.200;10.432;2022-10-16T05:06:53;12.00;99.90
13172;DHT22;6651;53.200;10.432;2022-10-16T05:09:19;11.90;99.90
13172;DHT22;6651;53.200;10.432;2022-10-16T05:11:44;12.00;99.90
13172;DHT22;6651;53.200;10.432;2022-10-16T05:14:10;12.10;99.90
13172;DHT22;6651;53.200;10.432;2022-10-16T05:16:35;12.00;99.90
13172;DHT22;6651;53.200;10.432;2022-10-16T05:19:01;12.00;99.90
13172;DHT22;6651;53.200;10.432;2022-10-16T05:21:27;12.10;99.90
13172;DHT22;6651;53.200;10.432;2022-10-16T05:23:53;12.10;99.90
13172;DHT22;6651;53.200;10.432;2022-10-16T05:26:20;12.10;99.90
13172;DHT22;6651;53.200;10.432;2022-10-16T05:28:46;12.10;99.90
13172;DHT22;6651;53.200;10.432;2022-10-16T05:31:12;12.00;99.90
13172;DHT22;6651;53.200;10.432;2022-10-16T05:33:38;12.00;99.90
13172;DHT22;6651;53.200;10.432;2022-10-16T05:36:05;12.00;99.90
13172;DHT22;6651;53.200;10.432;2022-10-16T05:38:33;11.90;99.90
13172;DHT22;6651;53.200;10.432;2022-10-16T05:40:58;11.90;99.90
13172;DHT22;6651;53.200;10.432;2022-10-16T05:43:24;12.00;99.90
13172;DHT22;6651;53.200;10.432;2022-10-16T05:45:57;12.00;99.90
13172;DHT22;6651;53.200;10.432;2022-10-16T05:48:23;12.00;99.90
13172;DHT22;6651;53.200;10.432;2022-10-16T05:50:59;11.90;99.90
13172;DHT22;6651;53.200;10.432;2022-10-16T05:53:27;11.90;99.90
13172;DHT22;6651;53.200;10.432;2022-10-16T05:55:53;11.90;99.90
13172;DHT22;6651;53.200;10.432;2022-10-16T05:58:19;11.80;99.90
13172;DHT22;6651;53.200;10.432;2022-10-16T06:00:44;11.70;99.90
13172;DHT22;6651;53.200;10.432;2022-10-16T06:03:10;11.80;99.90
13172;DHT22;6651;53.200;10.432;2022-10-16T06:05:36;11.70;99.90
13172;DHT22;6651;53.200;10.432;2022-10-16T06:08:01;11.70;99.90
13172;DHT22;6651;53.200;10.432;2022-10-16T06:10:27;11.70;99.90
13172;DHT22;6651;53.200;10.432;2022-10-16T06:12:54;11.70;99.90
13172;DHT22;6651;53.200;10.432;2022-10-16T06:15:19;11.70;99.90
13172;DHT22;6651;53.200;10.432;2022-10-16T06:17:45;11.70;99.90
13172;DHT22;6651;53.200;10.432;2022-10-16T06:20:11;11.70;99.90
13172;DHT22;6651;53.200;10.432;2022-10-16T06:22:36;11.70;99.90
13172;DHT22;6651;53.200;10.432;2022-10-16T06:25:02;11.70;99.90
13172;DHT22;6651;53.200;10.432;2022-10-16T06:27:28;11.70;99.90
13172;DHT22;6651;53.200;10.432;2022-10-16T06:29:53;11.70;99.90
13172;DHT22;6651;53.200;10.432;2022-10-16T06:32:19;11.70;99.90
13172;DHT22;6651;53.200;10.432;2022-10-16T06:34:46;11.80;99.90
13172;DHT22;6651;53.200;10.432;2022-10-16T06:37:11;11.80;99.90
13172;DHT22;6651;53.200;10.432;2022-10-16T06:39:37;11.80;99.90
13172;DHT22;6651;53.200;10.432;2022-10-16T06:42:02;11.90;99.90
13172;DHT22;6651;53.200;10.432;2022-10-16T06:44:28;11.90;99.90
13172;DHT22;6651;53.200;10.432;2022-10-16T06:46:53;11.90;99.90
13172;DHT22;6651;53.200;10.432;2022-10-16T06:49:19;12.00;99.90
13172;DHT22;6651;53.200;10.432;2022-10-16T06:51:48;12.00;99.90
13172;DHT22;6651;53.200;10.432;2022-10-16T06:54:15;12.00;99.90
13172;DHT22;6651;53.200;10.432;2022-10-16T06:56:40;12.00;99.90
13172;DHT22;6651;53.200;10.432;2022-10-16T06:59:06;12.00;99.90
13172;DHT22;6651;53.200;10.432;2022-10-16T07:01:32;12.10;99.90
13172;DHT22;6651;53.200;10.432;2022-10-16T07:03:58;12.10;99.90
13172;DHT22;6651;53.200;10.432;2022-10-16T07:06:25;12.10;99.90
13172;DHT22;6651;53.200;10.432;2022-10-16T07:08:51;12.10;99.90
13172;DHT22;6651;53.200;10.432;2022-10-16T07:11:19;12.10;99.90
13172;DHT22;6651;53.200;10.432;2022-10-16T07:13:46;12.20;99.90
13172;DHT22;6651;53.200;10.432;2022-10-16T07:16:20;12.20;99.90
13172;DHT22;6651;53.200;10.432;2022-10-16T07:18:46;12.30;99.90
13172;DHT22;6651;53.200;10.432;2022-10-16T07:21:18;12.30;99.90
13172;DHT22;6651;53.200;10.432;2022-10-16T07:24:10;12.40;99.90
13172;DHT22;6651;53.200;10.432;2022-10-16T07:26:34;12.40;99.90
13172;DHT22;6651;53.200;10.432;2022-10-16T07:29:00;12.70;99.90
13172;DHT22;6651;53.200;10.432;2022-10-16T07:31:26;12.90;99.90
13172;DHT22;6651;53.200;10.432;2022-10-16T07:33:52;13.20;99.90
13172;DHT22;6651;53.200;10.432;2022-10-16T07:36:19;13.40;99.90
13172;DHT22;6651;53.200;10.432;2022-10-16T07:38:46;13.70;99.90
13172;DHT22;6651;53.200;10.432;2022-10-16T07:41:14;13.80;99.90
13172;DHT22;6651;53.200;10.432;2022-10-16T07:43:45;13.90;99.90
13172;DHT22;6651;53.200;10.432;2022-10-16T07:46:10;14.00;99.90
13172;DHT22;6651;53.200;10.432;2022-10-16T07:48:36;14.10;99.90
13172;DHT22;6651;53.200;10.432;2022-10-16T07:51:04;14.20;99.90
13172;DHT22;6651;53.200;10.432;2022-10-16T07:53:30;14.10;99.90
13172;DHT22;6651;53.200;10.432;2022-10-16T07:56:04;14.20;99.90
13172;DHT22;6651;53.200;10.432;2022-10-16T07:58:31;14.30;99.90
13172;DHT22;6651;53.200;10.432;2022-10-16T08:00:58;14.50;99.90
13172;DHT22;6651;53.200;10.432;2022-10-16T08:03:25;14.80;99.90
13172;DHT22;6651;53.200;10.432;2022-10-16T08:05:51;15.10;99.90
13172;DHT22;6651;53.200;10.432;2022-10-16T08:08:18;15.30;99.90
13172;DHT22;6651;53.200;10.432;2022-10-16T08:10:44;15.50;99.90
13172;DHT22;6651;53.200;10.432;2022-10-16T08:13:10;15.60;99.90
13172;DHT22;6651;53.200;10.432;2022-10-16T08:15:35;15.70;99.90
13172;DHT22;6651;53.200;10.432;2022-10-16T08:18:03;15.90;99.90
13172;DHT22;6651;53.200;10.432;2022-10-16T08:20:30;16.10;99.90
13172;DHT22;6651;53.200;10.432;2022-10-16T08:22:56;16.40;99.90
13172;DHT22;6651;53.200;10.432;2022-10-16T08:25:25;16.50;99.90
13172;DHT22;6651;53.200;10.432;2022-10-16T08:27:51;16.60;99.90
13172;DHT22;6651;53.200;10.432;2022-10-16T08:30:18;16.70;99.90
13172;DHT22;6651;53.200;10.432;2022-10-16T08:32:44;16.60;99.90
13172;DHT22;6651;53.200;10.432;2022-10-16T08:35:11;16.40;99.90
13172;DHT22;6651;53.200;10.432;2022-10-16T08:37:37;16.20;99.90
13172;DHT22;6651;53.200;10.432;2022-10-16T08:40:11;16.10;99.90
13172;DHT22;6651;53.200;10.432;2022-10-16T08:51:03;15.70;99.90
13172;DHT22;6651;53.200;10.432;2022-10-16T08:53:48;15.80;99.90
13172;DHT22;6651;53.200;10.432;2022-10-16T08:56:14;16.20;99.90
13172;DHT22;6651;53.200;10.432;2022-10-16T08:58:40;16.50;99.90
13172;DHT22;6651;53.200;10.432;2022-10-16T09:01:12;16.70;99.90
13172;DHT22;6651;53.200;10.432;2022-10-16T09:04:07;16.90;99.90
13172;DHT22;6651;53.200;10.432;2022-10-16T09:10:12;17.10;99.90
13172;DHT22;6651;53.200;10.432;2022-10-16T09:12:14;17.20;99.90
13172;DHT22;6651;53.200;10.432;2022-10-16T09:22:57;17.90;99.90
13172;DHT22;6651;53.200;10.432;2022-10-16T09:25:25;18.00;99.90
13172;DHT22;6651;53.200;10.432;2022-10-16T09:27:53;18.00;99.90
13172;DHT22;6651;53.200;10.432;2022-10-16T09:30:20;18.00;99.90
13172;DHT22;6651;53.200;10.432;2022-10-16T09:32:48;18.00;99.90
13172;DHT22;6651;53.200;10.432;2022-10-16T09:35:20;18.20;99.90
13172;DHT22;6651;53.200;10.432;2022-10-16T09:37:49;18.40;99.90
13172;DHT22;6651;53.200;10.432;2022-10-16T09:40:48;18.50;99.90
13172;DHT22;6651;53.200;10.432;2022-10-16T09:43:24;18.70;99.90
13172;DHT22;6651;53.200;10.432;2022-10-16T09:46:00;18.70;99.90
13172;DHT22;6651;53.200;10.432;2022-10-16T09:48:39;18.80;99.90
13172;DHT22;6651;53.200;10.432;2022-10-16T09:51:18;18.80;99.90
13172;DHT22;6651;53.200;10.432;2022-10-16T09:53:46;18.80;99.90
13172;DHT22;6651;53.200;10.432;2022-10-16T09:56:22;18.80;99.90
13172;DHT22;6651;53.200;10.432;2022-10-16T09:58:53;18.90;99.90
13172;DHT22;6651;53.200;10.432;2022-10-16T10:01:20;19.00;99.90
13172;DHT22;6651;53.200;10.432;2022-10-16T10:03:46;19.10;99.90
13172;DHT22;6651;53.200;10.432;2022-10-16T10:06:25;19.20;99.90
13172;DHT22;6651;53.200;10.432;2022-10-16T10:09:00;19.20;99.90
13172;DHT22;6651;53.200;10.432;2022-10-16T10:11:53;19.30;99.90
13172;DHT22;6651;53.200;10.432;2022-10-16T10:14:35;19.40;99.90
13172;DHT22;6651;53.200;10.432;2022-10-16T10:22:39;19.60;99.90
13172;DHT22;6651;53.200;10.432;2022-10-16T10:33:28;19.70;99.90
13172;DHT22;6651;53.200;10.432;2022-10-16T10:38:52;19.70;99.90
13172;DHT22;6651;53.200;10.432;2022-10-16T10:44:22;19.90;99.90
13172;DHT22;6651;53.200;10.432;2022-10-16T10:46:53;20.00;99.90
13172;DHT22;6651;53.200;10.432;2022-10-16T10:55:38;20.40;99.90
13172;DHT22;6651;53.200;10.432;2022-10-16T11:01:13;20.10;99.90
13172;DHT22;6651;53.200;10.432;2022-10-16T11:06:47;20.10;99.90
13172;DHT22;6651;53.200;10.432;2022-10-16T11:11:44;20.10;99.90
13172;DHT22;6651;53.200;10.432;2022-10-16T11:14:18;20.00;99.90
13172;DHT22;6651;53.200;10.432;2022-10-16T11:16:56;20.00;99.90
13172;DHT22;6651;53.200;10.432;2022-10-16T11:19:45;20.10;99.90
13172;DHT22;6651;53.200;10.432;2022-10-16T11:22:33;20.10;99.90
13172;DHT22;6651;53.200;10.432;2022-10-16T11:25:04;20.20;99.90
13172;DHT22;6651;53.200;10.432;2022-10-16T11:27:42;20.00;99.90
13172;DHT22;6651;53.200;10.432;2022-10-16T11:30:20;19.80;99.90
13172;DHT22;6651;53.200;10.432;2022-10-16T11:38:20;20.00;99.90
13172;DHT22;6651;53.200;10.432;2022-10-16T11:40:51;19.80;99.90
13172;DHT22;6651;53.200;10.432;2022-10-16T11:43:40;19.80;99.90
13172;DHT22;6651;53.200;10.432;2022-10-16T11:46:15;19.80;99.90
13172;DHT22;6651;53.200;10.432;2022-10-16T11:51:39;19.90;99.90
13172;DHT22;6651;53.200;10.432;2022-10-16T11:57:14;20.20;99.90
13172;DHT22;6651;53.200;10.432;2022-10-16T12:00:02;20.30;99.90
13172;DHT22;6651;53.200;10.432;2022-10-16T12:05:58;19.80;99.90
13172;DHT22;6651;53.200;10.432;2022-10-16T12:08:25;19.50;99.90
13172;DHT22;6651;53.200;10.432;2022-10-16T12:10:51;19.30;99.90
13172;DHT22;6651;53.200;10.432;2022-10-16T12:13:45;19.30;99.90
13172;DHT22;6651;53.200;10.432;2022-10-16T12:18:44;19.10;99.90
13172;DHT22;6651;53.200;10.432;2022-10-16T12:21:34;19.00;99.90
13172;DHT22;6651;53.200;10.432;2022-10-16T12:24:50;19.00;99.90
13172;DHT22;6651;53.200;10.432;2022-10-16T12:26:53;19.10;99.90
13172;DHT22;6651;53.200;10.432;2022-10-16T12:29:39;19.20;99.90
13172;DHT22;6651;53.200;10.432;2022-10-16T12:32:30;19.30;99.90
13172;DHT22;6651;53.200;10.432;2022-10-16T12:34:57;19.20;99.90
13172;DHT22;6651;53.200;10.432;2022-10-16T12:37:26;19.30;99.90
13172;DHT22;6651;53.200;10.432;2022-10-16T12:39:56;19.30;99.90
13172;DHT22;6651;53.200;10.432;2022-10-16T12:47:56;19.20;99.90
13172;DHT22;6651;53.200;10.432;2022-10-16T12:50:29;19.10;99.90
13172;DHT22;6651;53.200;10.432;2022-10-16T12:53:18;19.10;99.90
13172;DHT22;6651;53.200;10.432;2022-10-16T12:55:57;19.00;99.90
13172;DHT22;6651;53.200;10.432;2022-10-16T12:59:07;19.00;99.90
13172;DHT22;6651;53.200;10.432;2022-10-16T13:08:16;19.00;99.90
13172;DHT22;6651;53.200;10.432;2022-10-16T13:16:13;19.10;99.90
13172;DHT22;6651;53.200;10.432;2022-10-16T13:24:35;19.30;99.90
13172;DHT22;6651;53.200;10.432;2022-10-16T13:29:36;19.40;99.90
13172;DHT22;6651;53.200;10.432;2022-10-16T13:32:11;19.50;99.90
13172;DHT22;6651;53.200;10.432;2022-10-16T13:34:48;19.50;99.90
13172;DHT22;6651;53.200;10.432;2022-10-16T13:37:23;19.40;99.90
13172;DHT22;6651;53.200;10.432;2022-10-16T13:40:01;19.50;99.90
13172;DHT22;6651;53.200;10.432;2022-10-16T13:42:29;19.50;99.90
13172;DHT22;6651;53.200;10.432;2022-10-16T13:44:56;19.50;99.90
13172;DHT22;6651;53.200;10.432;2022-10-16T13:47:22;19.30;99.90
13172;DHT22;6651;53.200;10.432;2022-10-16T13:50:00;19.20;99.90
13172;DHT22;6651;53.200;10.432;2022-10-16T13:52:29;19.10;99.90
13172;DHT22;6651;53.200;10.432;2022-10-16T13:55:01;19.10;99.90
13172;DHT22;6651;53.200;10.432;2022-10-16T13:57:27;19.00;99.90
13172;DHT22;6651;53.200;10.432;2022-10-16T13:59:55;18.90;99.90
13172;DHT22;6651;53.200;10.432;2022-10-16T14:02:38;18.80;99.90
13172;DHT22;6651;53.200;10.432;2022-10-16T14:05:08;18.90;99.90
13172;DHT22;6651;53.200;10.432;2022-10-16T14:07:36;18.90;99.90
13172;DHT22;6651;53.200;10.432;2022-10-16T14:10:05;18.90;99.90
13172;DHT22;6651;53.200;10.432;2022-10-16T14:12:32;19.00;99.90
13172;DHT22;6651;53.200;10.432;2022-10-16T14:14:58;18.90;99.90
13172;DHT22;6651;53.200;10.432;2022-10-16T14:19:55;18.80;99.90
13172;DHT22;6651;53.200;10.432;2022-10-16T14:22:37;18.80;99.90
13172;DHT22;6651;53.200;10.432;2022-10-16T14:30:26;18.80;99.90
13172;DHT22;6651;53.200;10.432;2022-10-16T14:32:59;18.80;99.90
13172;DHT22;6651;53.200;10.432;2022-10-16T14:35:37;18.90;99.90
13172;DHT22;6651;53.200;10.432;2022-10-16T14:38:06;19.00;99.90
13172;DHT22;6651;53.200;10.432;2022-10-16T14:45:54;18.90;99.90
13172;DHT22;6651;53.200;10.432;2022-10-16T14:48:20;18.90;99.90
13172;DHT22;6651;53.200;10.432;2022-10-16T14:50:46;18.80;99.90
13172;DHT22;6651;53.200;10.432;2022-10-16T14:53:12;18.80;99.90
13172;DHT22;6651;53.200;10.432;2022-10-16T14:55:39;18.80;99.90
13172;DHT22;6651;53.200;10.432;2022-10-16T14:58:07;18.80;99.90
13172;DHT22;6651;53.200;10.432;2022-10-16T15:00:35;18.90;99.90
13172;DHT22;6651;53.200;10.432;2022-10-16T15:03:01;18.80;99.90
13172;DHT22;6651;53.200;10.432;2022-10-16T15:05:27;18.80;99.90
13172;DHT22;6651;53.200;10.432;2022-10-16T15:07:54;18.70;99.90
13172;DHT22;6651;53.200;10.432;2022-10-16T15:10:22;18.60;99.90
13172;DHT22;6651;53.200;10.432;2022-10-16T15:12:48;18.50;99.90
13172;DHT22;6651;53.200;10.432;2022-10-16T15:15:24;18.40;99.90
13172;DHT22;6651;53.200;10.432;2022-10-16T15:18:01;18.30;99.90
13172;DHT22;6651;53.200;10.432;2022-10-16T15:20:30;18.30;99.90
13172;DHT22;6651;53.200;10.432;2022-10-16T15:23:02;18.20;99.90
13172;DHT22;6651;53.200;10.432;2022-10-16T15:25:35;18.10;99.90
13172;DHT22;6651;53.200;10.432;2022-10-16T15:28:03;18.00;99.90
13172;DHT22;6651;53.200;10.432;2022-10-16T15:30:28;17.90;99.90
13172;DHT22;6651;53.200;10.432;2022-10-16T15:32:54;17.90;99.90
13172;DHT22;6651;53.200;10.432;2022-10-16T15:35:20;17.80;99.90
13172;DHT22;6651;53.200;10.432;2022-10-16T15:37:46;17.90;99.90
13172;DHT22;6651;53.200;10.432;2022-10-16T15:40:13;17.90;99.90
13172;DHT22;6651;53.200;10.432;2022-10-16T15:42:39;17.80;99.90
13172;DHT22;6651;53.200;10.432;2022-10-16T15:45:05;17.80;99.90
13172;DHT22;6651;53.200;10.432;2022-10-16T15:47:32;17.70;99.90
13172;DHT22;6651;53.200;10.432;2022-10-16T15:49:57;17.80;99.90
13172;DHT22;6651;53.200;10.432;2022-10-16T15:52:23;17.70;99.90
13172;DHT22;6651;53.200;10.432;2022-10-16T15:54:49;17.50;99.90
13172;DHT22;6651;53.200;10.432;2022-10-16T15:57:14;17.40;99.90
13172;DHT22;6651;53.200;10.432;2022-10-16T15:59:40;17.30;99.90
13172;DHT22;6651;53.200;10.432;2022-10-16T16:02:05;17.30;99.90
13172;DHT22;6651;53.200;10.432;2022-10-16T16:04:31;17.20;99.90
13172;DHT22;6651;53.200;10.432;2022-10-16T16:06:57;17.20;99.90
13172;DHT22;6651;53.200;10.432;2022-10-16T16:09:23;17.10;99.90
13172;DHT22;6651;53.200;10.432;2022-10-16T16:11:49;17.00;99.90
13172;DHT22;6651;53.200;10.432;2022-10-16T16:14:15;16.90;99.90
13172;DHT22;6651;53.200;10.432;2022-10-16T16:16:41;16.80;99.90
13172;DHT22;6651;53.200;10.432;2022-10-16T16:19:07;16.80;99.90
13172;DHT22;6651;53.200;10.432;2022-10-16T16:21:34;16.70;99.90
13172;DHT22;6651;53.200;10.432;2022-10-16T16:23:59;16.70;99.90
13172;DHT22;6651;53.200;10.432;2022-10-16T16:26:29;16.60;99.90
13172;DHT22;6651;53.200;10.432;2022-10-16T16:28:59;16.50;99.90
13172;DHT22;6651;53.200;10.432;2022-10-16T16:31:40;16.30;99.90
13172;DHT22;6651;53.200;10.432;2022-10-16T16:34:06;16.20;99.90
13172;DHT22;6651;53.200;10.432;2022-10-16T16:36:32;15.90;99.90
13172;DHT22;6651;53.200;10.432;2022-10-16T16:38:58;15.80;99.90
13172;DHT22;6651;53.200;10.432;2022-10-16T16:41:28;15.60;99.90
13172;DHT22;6651;53.200;10.432;2022-10-16T16:43:55;15.50;99.90
13172;DHT22;6651;53.200;10.432;2022-10-16T16:46:21;15.40;99.90
13172;DHT22;6651;53.200;10.432;2022-10-16T16:48:47;15.30;99.90
13172;DHT22;6651;53.200;10.432;2022-10-16T16:51:16;15.20;99.90
13172;DHT22;6651;53.200;10.432;2022-10-16T16:53:48;15.10;99.90
13172;DHT22;6651;53.200;10.432;2022-10-16T16:56:14;14.90;99.90
13172;DHT22;6651;53.200;10.432;2022-10-16T16:58:40;14.70;99.90
13172;DHT22;6651;53.200;10.432;2022-10-16T17:01:09;14.60;99.90
13172;DHT22;6651;53.200;10.432;2022-10-16T17:03:35;14.60;99.90
13172;DHT22;6651;53.200;10.432;2022-10-16T17:06:03;14.60;99.90
13172;DHT22;6651;53.200;10.432;2022-10-16T17:08:30;14.70;99.90
13172;DHT22;6651;53.200;10.432;2022-10-16T17:10:56;14.70;99.90
13172;DHT22;6651;53.200;10.432;2022-10-16T17:13:27;14.70;99.90
13172;DHT22;6651;53.200;10.432;2022-10-16T17:15:53;14.70;99.90
13172;DHT22;6651;53.200;10.432;2022-10-16T17:18:21;14.70;99.90
13172;DHT22;6651;53.200;10.432;2022-10-16T17:20:47;14.60;99.90
13172;DHT22;6651;53.200;10.432;2022-10-16T17:23:13;14.60;99.90
13172;DHT22;6651;53.200;10.432;2022-10-16T17:25:39;14.50;99.90
13172;DHT22;6651;53.200;10.432;2022-10-16T17:28:07;14.20;99.90
13172;DHT22;6651;53.200;10.432;2022-10-16T17:30:33;14.10;99.90
13172;DHT22;6651;53.200;10.432;2022-10-16T17:33:01;14.00;99.90
13172;DHT22;6651;53.200;10.432;2022-10-16T17:35:27;13.90;99.90
13172;DHT22;6651;53.200;10.432;2022-10-16T17:37:53;13.80;99.90
13172;DHT22;6651;53.200;10.432;2022-10-16T17:40:19;13.70;99.90
13172;DHT22;6651;53.200;10.432;2022-10-16T17:42:46;13.70;99.90
13172;DHT22;6651;53.200;10.432;2022-10-16T17:45:13;13.70;99.90
13172;DHT22;6651;53.200;10.432;2022-10-16T17:47:39;13.70;99.90